Time;durP1;ratioP1;P1;durP2;ratioP2;P2;SDS_P1;SDS_P2;PMS_P1;PMS_P2;Temp;Humidity;BMP_temperature;BMP_pressure;BME280_temperature;BME280_humidity;BME280_pressure;Samples;Min_cycle;Max_cycle;Signal;HPM_P1;HPM_P2
2022/12/03 00:02:14;;;;;;;24.07;10.67;;;4.60;1.00;;;;;;5069120;28;20391;-58
2022/12/03 00:04:40;;;;;;;21.80;10.10;;;5.70;1.00;;;;;;5068278;28;20415;-58
2022/12/03 00:07:05;;;;;;;22.47;10.03;;;4.50;1.00;;;;;;5069872;28;20510;-59
2022/12/03 00:09:31;;;;;;;21.73;9.30;;;4.40;1.00;;;;;;5072237;28;20376;-58
2022/12/03 00:11:56;;;;;;;19.55;10.00;;;5.40;23.90;;;;;;5073198;28;20383;-58
2022/12/03 00:14:22;;;;;;;23.70;9.27;;;5.20;1.00;;;;;;5072833;28;20918;-58
2022/12/03 00:16:47;;;;;;;22.92;10.93;;;4.40;1.00;;;;;;5054261;28;20457;-59
2022/12/03 00:19:13;;;;;;;22.77;10.50;;;4.40;1.00;;;;;;5073231;28;20916;-58
2022/12/03 00:21:39;;;;;;;22.83;10.10;;;3.20;1.00;;;;;;5072055;28;20402;-58
2022/12/03 00:24:05;;;;;;;24.10;11.03;;;4.30;1.00;;;;;;5073069;28;20449;-58
2022/12/03 00:26:30;;;;;;;23.88;10.60;;;4.20;1.00;;;;;;5072102;28;20561;-65
2022/12/03 00:28:56;;;;;;;25.38;10.05;;;4.20;8.90;;;;;;5073038;28;20930;-58
2022/12/03 00:31:23;;;;;;;21.45;9.48;;;5.80;1.80;;;;;;5072774;28;20384;-58
2022/12/03 00:33:49;;;;;;;26.80;10.98;;;4.20;1.00;;;;;;5072035;28;20445;-58
2022/12/03 00:36:15;;;;;;;19.60;9.30;;;4.20;1.00;;;;;;5072259;28;20461;-58
2022/12/03 00:38:40;;;;;;;22.77;9.47;;;5.80;1.00;;;;;;5072066;28;20857;-58
2022/12/03 00:41:06;;;;;;;21.10;9.00;;;4.30;1.00;;;;;;5072713;28;20497;-58
2022/12/03 00:43:32;;;;;;;20.10;9.80;;;5.90;1.00;;;;;;5071791;28;20853;-58
2022/12/03 00:45:57;;;;;;;20.75;9.75;;;4.50;1.00;;;;;;5072608;28;20466;-58
2022/12/03 00:48:23;;;;;;;22.40;9.40;;;4.50;1.00;;;;;;5071571;28;20918;-59
2022/12/03 00:50:48;;;;;;;21.30;10.27;;;4.40;1.00;;;;;;5071873;28;20463;-57
2022/12/03 00:53:14;;;;;;;23.90;10.20;;;4.50;1.00;;;;;;5054446;28;20469;-59
2022/12/03 00:55:40;;;;;;;20.35;9.60;;;4.60;33.00;;;;;;5071410;28;20384;-57
2022/12/03 00:58:07;;;;;;;21.67;10.07;;;4.60;22.30;;;;;;5072375;28;20391;-57
2022/12/03 01:00:33;;;;;;;22.60;10.50;;;5.80;17.80;;;;;;5071530;28;20457;-58
2022/12/03 01:02:59;;;;;;;20.73;9.93;;;4.70;1.00;;;;;;5072347;28;20388;-57
2022/12/03 01:05:25;;;;;;;22.35;10.00;;;4.70;8.30;;;;;;5072037;28;20400;-57
2022/12/03 01:07:50;;;;;;;20.15;9.13;;;4.70;1.00;;;;;;5070949;28;20384;-58
2022/12/03 01:10:16;;;;;;;21.00;9.80;;;4.80;1.00;;;;;;5071896;28;20384;-57
2022/12/03 01:12:42;;;;;;;17.80;8.57;;;4.80;1.00;;;;;;5071313;28;20454;-57
2022/12/03 01:15:08;;;;;;;22.37;9.60;;;4.90;1.00;;;;;;5071748;28;20546;-58
2022/12/03 01:17:34;;;;;;;18.42;8.60;;;4.90;1.00;;;;;;5051775;28;20737;-59
2022/12/03 01:20:00;;;;;;;20.95;9.43;;;5.90;1.00;;;;;;5070839;28;20495;-57
2022/12/03 01:22:26;;;;;;;19.40;8.47;;;4.80;99.90;;;;;;5071919;28;20472;-60
2022/12/03 01:24:52;;;;;;;18.20;9.07;;;4.80;99.90;;;;;;5070849;28;20754;-57
2022/12/03 01:27:18;;;;;;;17.47;8.43;;;4.80;99.90;;;;;;5072002;28;20392;-57
2022/12/03 01:29:43;;;;;;;17.98;8.48;;;5.70;1.00;;;;;;5070846;28;20391;-57
2022/12/03 01:32:15;;;;;;;14.67;7.00;;;4.60;1.00;;;;;;5053828;28;20384;-57
2022/12/03 01:34:45;;;;;;;17.48;8.25;;;4.60;1.00;;;;;;5070646;28;20407;-57
2022/12/03 01:37:11;;;;;;;19.00;8.45;;;5.10;1.00;;;;;;5071297;28;20395;-58
2022/12/03 01:39:37;;;;;;;16.30;7.80;;;4.70;1.00;;;;;;5070713;28;20407;-58
2022/12/03 01:42:04;;;;;;;16.90;7.53;;;4.70;1.00;;;;;;5071684;28;20398;-58
2022/12/03 01:44:31;;;;;;;22.47;8.37;;;5.80;1.00;;;;;;5070837;28;20458;-65
2022/12/03 01:47:01;;;;;;;20.70;8.55;;;5.80;1.00;;;;;;5071535;28;20392;-58
2022/12/03 01:49:55;;;;;;;17.90;8.10;;;4.80;1.00;;;;;;5071361;28;20419;-58
2022/12/03 01:52:25;;;;;;;19.47;7.47;;;4.80;1.00;;;;;;5071465;28;20372;-58
2022/12/03 01:54:55;;;;;;;16.43;7.97;;;4.80;1.00;;;;;;5070485;28;20407;-58
2022/12/03 01:57:26;;;;;;;17.48;7.90;;;6.00;1.00;;;;;;5052156;28;20457;-59
2022/12/03 01:59:54;;;;;;;15.85;8.10;;;4.90;1.00;;;;;;5070544;28;20412;-58
2022/12/03 02:02:23;;;;;;;21.88;8.85;;;5.10;1.00;;;;;;5071023;28;20414;-57
2022/12/03 02:04:51;;;;;;;18.15;8.20;;;4.80;1.00;;;;;;5069968;28;20384;-58
2022/12/03 02:07:27;;;;;;;17.77;8.65;;;4.90;1.00;;;;;;5071006;28;20391;-59
2022/12/03 02:09:54;;;;;;;19.58;8.50;;;4.90;1.00;;;;;;5070371;28;20415;-60
2022/12/03 02:12:30;;;;;;;17.20;8.05;;;4.90;99.90;;;;;;5070887;28;20384;-59
2022/12/03 02:14:57;;;;;;;18.93;9.10;;;4.80;99.90;;;;;;5052540;28;20821;-58
2022/12/03 02:17:22;;;;;;;20.02;8.55;;;4.80;99.90;;;;;;5070827;28;20713;-60
2022/12/03 02:19:48;;;;;;;17.45;8.10;;;4.80;1.00;;;;;;5070144;28;20414;-58
2022/12/03 02:22:38;;;;;;;16.63;7.80;;;4.80;1.00;;;;;;5070710;28;20383;-58
2022/12/03 02:25:20;;;;;;;18.67;7.90;;;4.80;1.00;;;;;;5070482;28;20376;-58
2022/12/03 02:27:46;;;;;;;18.10;8.40;;;4.80;1.00;;;;;;5070034;28;20410;-58
2022/12/03 02:30:17;;;;;;;17.80;8.07;;;4.70;1.00;;;;;;5069417;28;20865;-58
2022/12/03 02:32:42;;;;;;;19.20;8.50;;;4.80;1.00;;;;;;5069487;28;20392;-58
2022/12/03 02:35:23;;;;;;;21.27;8.60;;;6.00;1.00;;;;;;5051899;28;20901;-58
2022/12/03 02:37:57;;;;;;;17.55;7.40;;;4.80;1.00;;;;;;5069546;28;20903;-58
2022/12/03 02:40:27;;;;;;;18.60;8.18;;;4.70;1.00;;;;;;5070166;28;20412;-59
2022/12/03 02:42:57;;;;;;;17.70;8.02;;;4.80;21.80;;;;;;5069503;28;20864;-58
2022/12/03 02:45:33;;;;;;;18.50;8.10;;;6.00;38.40;;;;;;5070282;28;20869;-58
2022/12/03 02:48:04;;;;;;;22.65;9.25;;;4.80;1.00;;;;;;5070166;28;20388;-58
2022/12/03 02:50:34;;;;;;;20.20;9.30;;;4.90;1.00;;;;;;5062102;28;20385;-65
2022/12/03 02:53:13;;;;;;;19.57;9.00;;;5.70;1.00;;;;;;5050250;28;20448;-59
2022/12/03 02:55:40;;;;;;;20.30;9.63;;;4.80;1.00;;;;;;5049490;28;20374;-59
2022/12/03 02:58:06;;;;;;;18.90;9.45;;;4.80;1.00;;;;;;5050075;28;20420;-58
2022/12/03 03:00:34;;;;;;;20.48;9.00;;;4.80;38.10;;;;;;5049461;28;20413;-65
2022/12/03 03:03:02;;;;;;;23.10;10.38;;;5.90;1.00;;;;;;5049886;28;20428;-58
2022/12/03 03:05:28;;;;;;;22.00;9.63;;;5.90;1.00;;;;;;5049966;28;20393;-58
2022/12/03 03:07:56;;;;;;;23.37;11.00;;;4.80;1.00;;;;;;5049059;28;20382;-58
2022/12/03 03:10:23;;;;;;;23.05;10.32;;;4.80;1.00;;;;;;5049935;28;20442;-59
2022/12/03 03:12:50;;;;;;;21.55;9.52;;;4.80;1.00;;;;;;5049241;28;20381;-58
2022/12/03 03:15:15;;;;;;;23.23;9.95;;;6.30;1.00;;;;;;5049809;28;20503;-58
2022/12/03 03:17:41;;;;;;;21.25;9.90;;;4.80;1.00;;;;;;5049312;28;20474;-60
2022/12/03 03:20:08;;;;;;;20.08;8.63;;;4.80;1.00;;;;;;5049827;28;20478;-58
2022/12/03 03:22:36;;;;;;;21.85;9.20;;;4.80;1.00;;;;;;5048861;28;20386;-65
2022/12/03 03:25:03;;;;;;;20.15;9.10;;;4.80;26.10;;;;;;5049647;28;20386;-58
2022/12/03 03:27:29;;;;;;;21.48;9.63;;;4.60;99.90;;;;;;5049533;28;20871;-59
2022/12/03 03:29:57;;;;;;;21.33;10.05;;;5.30;99.90;;;;;;5048945;28;20392;-58
2022/12/03 03:32:23;;;;;;;21.60;9.07;;;6.00;99.90;;;;;;5049720;28;20423;-58
2022/12/03 03:34:49;;;;;;;18.80;9.88;;;4.70;99.90;;;;;;5048794;28;20416;-58
2022/12/03 03:37:15;;;;;;;20.10;8.70;;;5.60;99.90;;;;;;5049155;28;20385;-58
2022/12/03 03:39:40;;;;;;;20.57;9.57;;;5.50;99.90;;;;;;5048783;28;20476;-59
2022/12/03 03:42:06;;;;;;;20.90;9.13;;;4.70;99.90;;;;;;5053435;28;20404;-58
2022/12/03 03:44:32;;;;;;;21.60;8.90;;;4.80;99.90;;;;;;5056021;28;20412;-65
2022/12/03 03:46:58;;;;;;;20.53;8.70;;;6.50;69.70;;;;;;5055908;28;20385;-60
2022/12/03 03:49:24;;;;;;;22.00;9.90;;;4.60;99.90;;;;;;5056084;28;20384;-57
2022/12/03 03:51:50;;;;;;;21.27;9.60;;;4.60;99.90;;;;;;5053649;28;20404;-57
2022/12/03 03:54:15;;;;;;;25.20;10.23;;;4.60;99.90;;;;;;5055821;28;20472;-60
2022/12/03 03:56:41;;;;;;;19.42;9.32;;;4.60;99.90;;;;;;5055640;28;20383;-57
2022/12/03 03:59:07;;;;;;;19.60;9.40;;;4.60;99.90;;;;;;5055939;28;20778;-57
2022/12/03 04:01:33;;;;;;;20.20;9.20;;;5.20;99.90;;;;;;5055934;28;20491;-64
2022/12/03 04:03:58;;;;;;;18.70;8.98;;;4.70;99.90;;;;;;5055507;28;20829;-57
2022/12/03 04:06:27;;;;;;;24.20;9.10;;;4.80;99.90;;;;;;5055938;28;20415;-57
2022/12/03 04:08:53;;;;;;;19.38;8.48;;;5.90;29.60;;;;;;5055107;28;20384;-60
2022/12/03 04:14:03;;;;;;;22.60;9.07;;;6.40;52.90;;;;;;5056152;28;20431;-57
2022/12/03 04:16:29;;;;;;;19.90;9.20;;;4.80;1.00;;;;;;5055998;28;20381;-58
2022/12/03 04:18:54;;;;;;;20.85;9.10;;;4.80;1.00;;;;;;5055124;28;21201;-63
2022/12/03 04:24:08;;;;;;;20.75;9.48;;;4.60;99.90;;;;;;5056031;28;20497;-57
2022/12/03 04:29:19;;;;;;;25.73;10.02;;;4.70;22.60;;;;;;5055843;28;20418;-58
2022/12/03 04:37:13;;;;;;;23.57;9.97;;;4.70;1.00;;;;;;5055918;28;20443;-57
2022/12/03 04:39:38;;;;;;;21.90;9.70;;;4.60;1.00;;;;;;5055140;28;20898;-58
2022/12/03 04:42:05;;;;;;;23.92;10.32;;;6.00;99.90;;;;;;5055905;28;20393;-58
2022/12/03 04:44:35;;;;;;;22.80;9.95;;;4.70;99.90;;;;;;5055875;28;20527;-57
2022/12/03 04:47:11;;;;;;;23.73;10.35;;;4.80;23.80;;;;;;5055665;28;20719;-59
2022/12/03 04:49:40;;;;;;;22.08;9.90;;;4.90;1.00;;;;;;5054889;28;20401;-58
2022/12/03 04:52:06;;;;;;;23.13;10.03;;;5.50;1.00;;;;;;5055753;28;20384;-58
2022/12/03 04:54:33;;;;;;;22.90;10.02;;;6.20;1.00;;;;;;5051629;28;20416;-64
2022/12/03 04:56:59;;;;;;;23.20;9.32;;;5.00;1.00;;;;;;5051854;28;20435;-59
2022/12/03 04:59:24;;;;;;;22.80;9.60;;;5.70;1.00;;;;;;5052328;28;20754;-58
2022/12/03 05:01:50;;;;;;;20.43;10.30;;;6.00;1.00;;;;;;5051796;28;20400;-58
2022/12/03 05:04:17;;;;;;;25.02;10.55;;;6.20;99.90;;;;;;5051926;28;20393;-60
2022/12/03 05:06:43;;;;;;;21.67;9.95;;;4.90;1.00;;;;;;5051448;28;20836;-58
2022/12/03 05:09:09;;;;;;;25.38;10.00;;;4.70;1.00;;;;;;5052349;28;20465;-58
2022/12/03 05:11:35;;;;;;;23.55;9.70;;;4.60;29.50;;;;;;5051392;28;20385;-66
2022/12/03 05:14:01;;;;;;;24.42;10.35;;;4.60;99.90;;;;;;5051843;28;20423;-59
2022/12/03 05:16:27;;;;;;;26.67;10.93;;;4.70;99.90;;;;;;5051523;28;20381;-61
2022/12/03 05:18:52;;;;;;;25.35;11.23;;;6.40;99.90;;;;;;5051028;28;20444;-58
2022/12/03 05:21:18;;;;;;;26.08;10.70;;;4.60;99.90;;;;;;5033914;28;20417;-58
2022/12/03 05:23:43;;;;;;;24.30;9.63;;;5.40;99.90;;;;;;5051189;28;20411;-58
2022/12/03 05:26:10;;;;;;;20.40;9.98;;;4.60;99.90;;;;;;5052115;28;20377;-59
2022/12/03 05:28:35;;;;;;;24.17;10.02;;;4.40;99.90;;;;;;5051304;28;20461;-64
2022/12/03 05:31:01;;;;;;;28.45;10.40;;;4.40;99.90;;;;;;5051492;28;20476;-57
2022/12/03 05:33:27;;;;;;;22.53;9.20;;;4.40;99.90;;;;;;5051471;28;20742;-58
2022/12/03 05:35:52;;;;;;;26.23;11.20;;;4.40;99.90;;;;;;5050885;28;20682;-57
2022/12/03 05:38:18;;;;;;;22.67;10.17;;;4.40;99.90;;;;;;5051485;28;20469;-58
2022/12/03 05:40:44;;;;;;;22.60;10.93;;;4.50;99.90;;;;;;5052607;28;20441;-58
2022/12/03 05:43:09;;;;;;;24.67;10.35;;;4.40;99.90;;;;;;5060692;28;20415;-58
2022/12/03 05:45:37;;;;;;;23.87;11.27;;;6.10;99.90;;;;;;5051057;28;20385;-64
2022/12/03 05:48:05;;;;;;;23.42;10.43;;;4.40;99.90;;;;;;5051358;28;20404;-57
2022/12/03 05:50:32;;;;;;;25.65;11.05;;;4.30;99.90;;;;;;5051421;28;20799;-58
2022/12/03 05:52:58;;;;;;;25.50;11.40;;;4.30;99.90;;;;;;5050735;28;20843;-57
2022/12/03 05:55:24;;;;;;;25.25;10.30;;;5.30;1.00;;;;;;5051330;28;20439;-58
2022/12/03 05:57:50;;;;;;;24.95;11.07;;;4.20;1.00;;;;;;5032532;28;20480;-57
2022/12/03 06:00:21;;;;;;;31.83;12.15;;;4.10;1.00;;;;;;5051083;28;20512;-58
2022/12/03 06:02:47;;;;;;;28.57;11.33;;;4.20;1.00;;;;;;5050301;28;20389;-58
2022/12/03 06:05:14;;;;;;;27.00;11.90;;;4.30;1.00;;;;;;5050038;28;20452;-58
2022/12/03 06:07:40;;;;;;;28.95;11.80;;;4.30;1.00;;;;;;5050296;28;20385;-58
2022/12/03 06:10:09;;;;;;;27.48;11.38;;;4.40;1.00;;;;;;5050882;28;20390;-59
2022/12/03 06:12:35;;;;;;;25.27;11.43;;;4.50;1.00;;;;;;5050661;28;20507;-65
2022/12/03 06:15:01;;;;;;;25.30;11.60;;;4.40;1.00;;;;;;5050294;28;20832;-58
2022/12/03 06:17:27;;;;;;;32.27;11.77;;;4.40;1.00;;;;;;5050957;28;20373;-58
2022/12/03 06:19:52;;;;;;;32.35;12.50;;;4.40;1.00;;;;;;5049937;28;20405;-57
2022/12/03 06:22:18;;;;;;;29.80;12.23;;;4.50;1.00;;;;;;5032926;28;20724;-58
2022/12/03 06:24:44;;;;;;;29.15;12.38;;;4.60;1.00;;;;;;5049914;28;20377;-58
2022/12/03 06:27:11;;;;;;;26.75;11.80;;;4.80;99.90;;;;;;5050493;28;20486;-59
2022/12/03 06:29:36;;;;;;;28.92;11.15;;;6.40;99.90;;;;;;5050003;28;20381;-65
2022/12/03 06:32:03;;;;;;;24.17;11.03;;;4.70;99.90;;;;;;5050335;28;20380;-57
2022/12/03 06:34:29;;;;;;;31.05;11.13;;;4.70;99.90;;;;;;5050450;28;20459;-57
2022/12/03 06:36:54;;;;;;;28.30;10.75;;;6.00;99.90;;;;;;5049913;28;20672;-57
2022/12/03 06:39:20;;;;;;;29.07;11.77;;;4.70;99.90;;;;;;5050400;28;20798;-58
2022/12/03 06:41:45;;;;;;;27.10;10.77;;;4.70;99.90;;;;;;5049672;28;20385;-57
2022/12/03 06:44:11;;;;;;;27.17;10.60;;;4.70;99.90;;;;;;5053252;28;20489;-57
2022/12/03 06:46:37;;;;;;;28.00;11.23;;;4.70;99.90;;;;;;5058130;28;20968;-65
2022/12/03 06:49:02;;;;;;;32.15;10.38;;;4.60;99.90;;;;;;5056627;28;20938;-58
2022/12/03 06:51:28;;;;;;;32.87;12.23;;;4.70;99.90;;;;;;5052405;28;20789;-60
2022/12/03 06:53:53;;;;;;;27.75;11.50;;;5.00;99.90;;;;;;5068393;28;20398;-58
2022/12/03 06:56:19;;;;;;;26.43;10.87;;;5.50;99.90;;;;;;5059390;28;20437;-62
2022/12/03 06:58:45;;;;;;;27.73;11.35;;;4.60;99.90;;;;;;5050288;28;20392;-58
2022/12/03 07:01:10;;;;;;;25.43;10.30;;;4.50;99.90;;;;;;5052382;28;20426;-58
2022/12/03 07:03:36;;;;;;;32.33;12.88;;;5.40;1.00;;;;;;5064377;28;20422;-63
2022/12/03 07:06:02;;;;;;;32.80;12.23;;;4.50;99.90;;;;;;5063350;28;20409;-58
2022/12/03 07:08:27;;;;;;;29.55;12.25;;;4.60;99.90;;;;;;5068447;28;21019;-58
2022/12/03 07:10:53;;;;;;;28.52;11.60;;;5.80;99.90;;;;;;5065314;28;20478;-57
2022/12/03 07:13:19;;;;;;;30.27;12.90;;;4.80;99.90;;;;;;5058896;28;20405;-57
2022/12/03 07:15:45;;;;;;;29.03;12.20;;;4.80;99.90;;;;;;5058027;28;20408;-57
2022/12/03 07:18:10;;;;;;;26.00;11.55;;;4.80;99.90;;;;;;5053539;28;20883;-60
2022/12/03 07:20:36;;;;;;;27.13;12.27;;;4.80;99.90;;;;;;5056459;28;20404;-65
2022/12/03 07:23:01;;;;;;;32.47;12.20;;;6.10;99.90;;;;;;5063408;28;20520;-59
2022/12/03 07:25:27;;;;;;;30.47;12.53;;;4.70;99.90;;;;;;5060889;28;20408;-62
2022/12/03 07:27:53;;;;;;;29.63;12.10;;;4.50;99.90;;;;;;5048052;28;20490;-58
2022/12/03 07:30:19;;;;;;;32.97;12.18;;;4.50;99.90;;;;;;5037253;28;20398;-60
2022/12/03 07:32:45;;;;;;;28.42;12.27;;;4.50;1.00;;;;;;5062322;28;20387;-59
2022/12/03 07:35:10;;;;;;;36.20;13.87;;;4.60;1.00;;;;;;5062469;28;20486;-60
2022/12/03 07:37:36;;;;;;;39.27;14.23;;;4.50;1.00;;;;;;5055238;28;20402;-65
2022/12/03 07:40:02;;;;;;;39.25;13.82;;;4.80;1.00;;;;;;5061217;28;20409;-59
2022/12/03 07:42:28;;;;;;;35.72;14.45;;;4.40;1.00;;;;;;5052329;28;20423;-59
2022/12/03 07:44:54;;;;;;;40.28;14.50;;;4.50;1.00;;;;;;5050397;28;20394;-60
2022/12/03 07:47:19;;;;;;;39.60;14.67;;;4.50;1.00;;;;;;5055193;28;20469;-59
2022/12/03 07:49:45;;;;;;;47.22;15.38;;;4.60;99.90;;;;;;5068362;28;20384;-58
2022/12/03 07:52:10;;;;;;;32.87;13.47;;;4.60;1.00;;;;;;5053701;28;20486;-59
2022/12/03 07:54:36;;;;;;;29.98;14.00;;;4.60;1.00;;;;;;5055037;28;20453;-65
2022/12/03 07:57:02;;;;;;;34.77;13.70;;;4.60;1.00;;;;;;5056820;28;20902;-60
2022/12/03 07:59:28;;;;;;;32.50;14.40;;;4.70;99.90;;;;;;5059679;28;20831;-59
2022/12/03 08:01:54;;;;;;;31.73;13.90;;;4.70;99.90;;;;;;5054442;28;20386;-59
2022/12/03 08:04:20;;;;;;;34.97;14.60;;;4.80;1.00;;;;;;5048954;28;20503;-63
2022/12/03 08:06:46;;;;;;;35.20;13.65;;;4.80;99.90;;;;;;5055003;28;20485;-58
2022/12/03 08:09:11;;;;;;;34.50;15.00;;;4.80;1.00;;;;;;5059625;28;20411;-59
2022/12/03 08:11:37;;;;;;;35.70;13.43;;;6.20;99.90;;;;;;5048183;28;20402;-65
2022/12/03 08:14:14;;;;;;;31.10;12.37;;;4.90;99.90;;;;;;5062699;28;20428;-58
2022/12/03 08:16:41;;;;;;;33.10;12.68;;;6.60;99.90;;;;;;5065319;28;20467;-65
2022/12/03 08:19:12;;;;;;;26.63;12.37;;;4.90;99.90;;;;;;5035096;28;20496;-61
2022/12/03 08:21:39;;;;;;;32.88;13.15;;;5.40;99.90;;;;;;5052260;28;20460;-65
2022/12/03 08:24:11;;;;;;;34.15;13.98;;;4.90;99.90;;;;;;5053969;28;20401;-59
2022/12/03 08:26:37;;;;;;;35.90;13.65;;;4.90;99.90;;;;;;5052847;28;20816;-65
2022/12/03 08:29:07;;;;;;;33.80;14.60;;;4.90;99.90;;;;;;5033864;28;20548;-58
2022/12/03 08:31:33;;;;;;;32.05;13.00;;;6.60;99.90;;;;;;5061153;28;20762;-60
2022/12/03 08:34:21;;;;;;;37.40;15.05;;;6.40;99.90;;;;;;5051290;28;20397;-58
2022/12/03 08:36:49;;;;;;;38.05;14.27;;;5.00;99.90;;;;;;5062079;28;20435;-63
2022/12/03 08:39:15;;;;;;;28.48;13.30;;;5.00;99.90;;;;;;5053735;28;20413;-59
2022/12/03 08:44:37;;;;;;;33.42;14.25;;;5.00;99.90;;;;;;5059641;28;20470;-59
2022/12/03 08:47:08;;;;;;;32.35;12.13;;;4.80;99.90;;;;;;5064794;28;20878;-58
2022/12/03 08:49:34;;;;;;;36.90;13.90;;;4.90;99.90;;;;;;5059229;28;20417;-59
2022/12/03 08:52:10;;;;;;;36.88;14.32;;;4.70;99.90;;;;;;5060602;28;20498;-59
2022/12/03 08:54:35;;;;;;;35.30;12.65;;;5.00;99.90;;;;;;5052416;28;20462;-61
2022/12/03 08:57:25;;;;;;;35.63;14.60;;;5.10;99.90;;;;;;5053298;28;20529;-58
2022/12/03 08:59:57;;;;;;;34.35;14.65;;;6.30;99.90;;;;;;5059021;28;20878;-59
2022/12/03 09:02:32;;;;;;;29.63;13.18;;;5.30;99.90;;;;;;5063322;28;20392;-60
2022/12/03 09:05:21;;;;;;;34.40;14.07;;;5.30;99.90;;;;;;5058117;28;20407;-60
2022/12/03 09:07:47;;;;;;;35.55;14.50;;;5.30;99.90;;;;;;5068176;28;21072;-59
2022/12/03 09:10:13;;;;;;;38.00;15.00;;;5.40;99.90;;;;;;5061289;28;20453;-59
2022/12/03 09:12:39;;;;;;;34.92;15.10;;;5.40;69.90;;;;;;5064698;28;20414;-65
2022/12/03 09:15:05;;;;;;;37.53;15.35;;;6.60;18.20;;;;;;5063636;28;20405;-62
2022/12/03 09:17:31;;;;;;;33.72;13.70;;;5.40;39.40;;;;;;5057908;28;20409;-59
2022/12/03 09:19:57;;;;;;;33.35;13.40;;;5.50;1.00;;;;;;5057121;28;20481;-59
2022/12/03 09:22:23;;;;;;;36.73;13.63;;;5.50;99.90;;;;;;5055062;28;20469;-59
2022/12/03 09:24:48;;;;;;;30.48;14.00;;;5.30;99.90;;;;;;5048622;28;20506;-60
2022/12/03 09:27:14;;;;;;;37.25;14.70;;;5.30;99.90;;;;;;5061814;28;20421;-59
2022/12/03 09:29:40;;;;;;;29.07;12.57;;;6.80;99.90;;;;;;5062078;28;20498;-65
2022/12/03 09:32:05;;;;;;;28.88;12.68;;;5.30;1.00;;;;;;5061984;28;20403;-59
2022/12/03 09:34:31;;;;;;;32.57;13.10;;;5.20;1.00;;;;;;5063478;28;20509;-59
2022/12/03 09:36:56;;;;;;;27.02;12.90;;;6.20;1.00;;;;;;5065337;28;20396;-59
2022/12/03 09:39:22;;;;;;;30.20;12.30;;;6.20;1.00;;;;;;5071050;28;20384;-59
2022/12/03 09:41:48;;;;;;;31.95;12.38;;;5.60;99.90;;;;;;5051789;28;20512;-59
2022/12/03 09:44:14;;;;;;;22.80;10.25;;;5.00;1.00;;;;;;5056634;28;20407;-59
2022/12/03 09:46:41;;;;;;;30.45;12.20;;;4.90;99.90;;;;;;5060745;28;20405;-66
2022/12/03 09:49:11;;;;;;;33.75;11.35;;;4.90;99.90;;;;;;5062579;28;20419;-57
2022/12/03 09:51:38;;;;;;;25.02;10.60;;;4.80;35.30;;;;;;5065888;28;20449;-56
2022/12/03 09:54:05;;;;;;;30.40;11.63;;;5.60;38.00;;;;;;5050127;28;20411;-56
2022/12/03 09:56:32;;;;;;;30.33;14.40;;;4.60;99.90;;;;;;5070532;28;20733;-56
2022/12/03 09:58:58;;;;;;;34.10;13.93;;;4.70;1.00;;;;;;5072786;28;20400;-56
2022/12/03 10:01:24;;;;;;;28.80;12.60;;;6.30;99.90;;;;;;5083253;28;20819;-56
2022/12/03 10:03:51;;;;;;;28.33;11.50;;;5.00;99.90;;;;;;5068769;28;20510;-61
2022/12/03 10:06:22;;;;;;;30.58;11.55;;;4.60;99.90;;;;;;5069159;28;20480;-57
2022/12/03 10:08:49;;;;;;;26.23;12.30;;;6.40;99.90;;;;;;5069665;28;20471;-57
2022/12/03 10:11:17;;;;;;;27.58;11.18;;;6.30;1.00;;;;;;5069336;28;20478;-56
2022/12/03 10:13:43;;;;;;;24.70;10.82;;;4.80;99.90;;;;;;5062715;28;20397;-58
2022/12/03 10:16:14;;;;;;;30.50;12.07;;;5.10;99.90;;;;;;5053786;28;20450;-57
2022/12/03 10:18:43;;;;;;;27.48;10.52;;;6.40;99.90;;;;;;5057885;28;20747;-64
2022/12/03 10:21:22;;;;;;;27.00;11.13;;;5.80;1.00;;;;;;5050614;28;20437;-57
2022/12/03 10:23:49;;;;;;;25.42;10.20;;;4.70;1.00;;;;;;5050674;28;21911;-60
2022/12/03 10:26:15;;;;;;;26.23;11.45;;;4.70;1.00;;;;;;5070582;28;20384;-56
2022/12/03 10:28:45;;;;;;;25.17;10.47;;;4.70;99.90;;;;;;5063427;28;20753;-63
2022/12/03 10:31:12;;;;;;;26.40;9.95;;;6.10;1.00;;;;;;5068732;28;20880;-60
2022/12/03 10:33:44;;;;;;;24.40;9.10;;;4.60;1.00;;;;;;5068344;28;20408;-62
2022/12/03 10:36:29;;;;;;;25.77;10.32;;;4.60;99.90;;;;;;5066762;28;20777;-56
2022/12/03 10:39:13;;;;;;;22.17;10.00;;;5.60;58.20;;;;;;5066019;28;20400;-56
2022/12/03 10:41:40;;;;;;;26.27;10.05;;;4.30;1.00;;;;;;5067048;28;20765;-63
2022/12/03 10:44:11;;;;;;;26.00;10.80;;;4.30;1.00;;;;;;5069362;28;20760;-56
2022/12/03 10:46:36;;;;;;;24.57;10.57;;;4.40;1.00;;;;;;5068611;28;20481;-57
2022/12/03 10:49:13;;;;;;;24.08;10.75;;;4.40;99.90;;;;;;5063779;28;20524;-60
2022/12/03 10:51:39;;;;;;;21.98;9.68;;;4.50;1.00;;;;;;5063342;28;20877;-64
2022/12/03 10:54:15;;;;;;;24.33;10.23;;;4.60;1.00;;;;;;5066487;28;20458;-57
2022/12/03 10:56:42;;;;;;;28.55;13.65;;;5.10;1.00;;;;;;5069576;28;20470;-63
2022/12/03 10:59:14;;;;;;;38.42;14.32;;;4.50;99.90;;;;;;5070034;28;20510;-58
2022/12/03 11:01:40;;;;;;;40.80;16.85;;;4.40;99.90;;;;;;5069569;28;20410;-63
2022/12/03 11:04:22;;;;;;;35.23;14.60;;;6.00;99.90;;;;;;5070013;28;20396;-57
2022/12/03 11:06:49;;;;;;;27.52;12.57;;;4.50;99.90;;;;;;5066624;28;20404;-57
2022/12/03 11:09:23;;;;;;;33.05;13.60;;;4.60;99.90;;;;;;5066176;28;20372;-57
2022/12/03 11:11:49;;;;;;;27.55;12.05;;;4.40;99.90;;;;;;5065969;28;20387;-57
2022/12/03 11:14:51;;;;;;;32.63;13.67;;;5.80;99.90;;;;;;5067505;28;20407;-57
2022/12/03 11:17:40;;;;;;;26.70;10.83;;;4.60;99.90;;;;;;5050912;28;20441;-57
2022/12/03 11:20:32;;;;;;;23.52;10.63;;;5.10;99.90;;;;;;5061924;28;20407;-57
2022/12/03 11:22:58;;;;;;;22.67;10.30;;;4.40;99.90;;;;;;5041498;28;20423;-57
2022/12/03 11:25:27;;;;;;;26.35;12.27;;;5.70;99.90;;;;;;5069315;28;20378;-57
2022/12/03 11:28:10;;;;;;;30.75;12.60;;;5.10;99.90;;;;;;5068786;28;20387;-57
2022/12/03 11:30:48;;;;;;;23.20;9.90;;;5.70;1.00;;;;;;5069717;28;20396;-57
2022/12/03 11:33:33;;;;;;;21.90;10.17;;;4.40;1.00;;;;;;5069480;28;20961;-58
2022/12/03 11:36:01;;;;;;;21.70;10.20;;;4.30;44.70;;;;;;5065201;28;20420;-57
2022/12/03 11:38:36;;;;;;;22.75;10.48;;;4.40;18.40;;;;;;5067013;28;20471;-57
2022/12/03 11:41:27;;;;;;;27.20;10.40;;;4.20;99.90;;;;;;5068486;28;20399;-57
2022/12/03 11:43:56;;;;;;;27.50;11.85;;;4.10;99.90;;;;;;5068648;28;20473;-57
2022/12/03 11:46:43;;;;;;;23.63;10.50;;;4.20;1.00;;;;;;5069300;28;20383;-58
2022/12/03 11:49:31;;;;;;;22.75;11.63;;;4.50;99.90;;;;;;5069412;28;20458;-58
2022/12/03 11:52:00;;;;;;;24.75;10.18;;;5.00;99.90;;;;;;5065183;28;20496;-58
2022/12/03 11:54:26;;;;;;;26.25;9.73;;;4.30;1.00;;;;;;5058737;28;20408;-57
2022/12/03 11:56:53;;;;;;;27.70;11.67;;;5.80;99.90;;;;;;5049251;28;20459;-57
2022/12/03 11:59:19;;;;;;;22.90;10.43;;;4.50;99.90;;;;;;5049100;28;20515;-57
2022/12/03 12:01:45;;;;;;;23.08;9.45;;;5.60;1.00;;;;;;5048364;28;20393;-58
2022/12/03 12:04:41;;;;;;;23.70;9.80;;;4.30;1.00;;;;;;5053274;28;20866;-59
2022/12/03 12:07:07;;;;;;;22.15;9.20;;;4.20;1.00;;;;;;5052868;28;20461;-59
2022/12/03 12:09:55;;;;;;;25.57;10.90;;;4.20;1.00;;;;;;5053395;28;20449;-58
2022/12/03 12:12:37;;;;;;;23.30;9.05;;;4.20;8.50;;;;;;5057553;28;20850;-58
2022/12/03 12:15:38;;;;;;;23.70;9.55;;;4.20;1.00;;;;;;5074198;28;20821;-58
2022/12/03 12:18:33;;;;;;;22.73;9.30;;;4.20;1.00;;;;;;5057806;28;20402;-59
2022/12/03 12:21:36;;;;;;;16.88;8.60;;;4.20;1.00;;;;;;5071973;28;20460;-58
2022/12/03 12:24:45;;;;;;;20.55;8.88;;;4.20;1.00;;;;;;5052280;28;20392;-58
2022/12/03 12:27:22;;;;;;;18.97;8.10;;;4.20;1.00;;;;;;5052765;28;20480;-59
2022/12/03 12:29:54;;;;;;;23.35;10.23;;;4.10;1.00;;;;;;5051930;28;20394;-58
2022/12/03 12:32:45;;;;;;;21.65;9.45;;;4.20;1.00;;;;;;5052432;28;20385;-58
2022/12/03 12:35:22;;;;;;;23.00;8.40;;;4.10;1.00;;;;;;5052612;28;20437;-57
2022/12/03 12:37:52;;;;;;;17.80;8.57;;;4.20;1.00;;;;;;5051710;28;20507;-59
2022/12/03 12:40:22;;;;;;;19.83;7.95;;;4.10;1.00;;;;;;5052317;28;20405;-57
2022/12/03 12:42:53;;;;;;;22.35;9.30;;;5.30;1.00;;;;;;5051317;28;20851;-58
2022/12/03 12:45:21;;;;;;;23.52;10.52;;;4.20;1.00;;;;;;5052829;28;20381;-60
2022/12/03 12:47:56;;;;;;;25.13;10.52;;;3.80;1.00;;;;;;5052165;28;20381;-57
2022/12/03 12:50:23;;;;;;;22.95;9.77;;;5.30;99.90;;;;;;5052745;28;20396;-57
2022/12/03 12:52:56;;;;;;;21.17;10.07;;;3.80;1.00;;;;;;5063642;28;20380;-61
2022/12/03 12:55:22;;;;;;;22.70;8.85;;;3.80;1.00;;;;;;5072578;28;20379;-58
2022/12/03 12:57:48;;;;;;;22.42;8.77;;;3.80;1.00;;;;;;5071686;28;20402;-58
2022/12/03 13:00:17;;;;;;;24.30;8.82;;;3.80;1.00;;;;;;5072653;28;20399;-58
2022/12/03 13:03:03;;;;;;;24.67;9.25;;;3.80;1.00;;;;;;5071593;28;20471;-58
2022/12/03 13:05:38;;;;;;;23.55;8.43;;;3.70;1.00;;;;;;5072713;28;20388;-57
2022/12/03 13:08:22;;;;;;;20.73;8.20;;;5.70;23.90;;;;;;5071584;28;20463;-58
2022/12/03 13:10:48;;;;;;;23.67;10.18;;;3.70;99.90;;;;;;5071803;28;20835;-58
2022/12/03 13:13:14;;;;;;;22.30;8.05;;;3.80;99.90;;;;;;5078765;28;20396;-58